sensor_id;sensor_type;location;lat;lon;timestamp;temperature;humidity
10864;DHT22;5485;37.558;126.950;2023-03-01T00:01:17;6.40;1.00
10864;DHT22;5485;37.558;126.950;2023-03-01T00:03:45;6.50;1.00
10864;DHT22;5485;37.558;126.950;2023-03-01T00:06:12;6.60;1.00
10864;DHT22;5485;37.558;126.950;2023-03-01T00:08:39;6.70;1.00
10864;DHT22;5485;37.558;126.950;2023-03-01T00:11:25;6.70;1.00
10864;DHT22;5485;37.558;126.950;2023-03-01T00:13:55;6.70;1.00
10864;DHT22;5485;37.558;126.950;2023-03-01T00:16:28;6.80;1.00
10864;DHT22;5485;37.558;126.950;2023-03-01T00:18:56;6.70;1.00
10864;DHT22;5485;37.558;126.950;2023-03-01T00:21:26;6.70;1.00
10864;DHT22;5485;37.558;126.950;2023-03-01T00:23:54;6.70;1.00
10864;DHT22;5485;37.558;126.950;2023-03-01T00:26:24;6.80;1.00
10864;DHT22;5485;37.558;126.950;2023-03-01T00:28:52;6.90;1.00
10864;DHT22;5485;37.558;126.950;2023-03-01T00:31:23;6.90;1.00
10864;DHT22;5485;37.558;126.950;2023-03-01T00:33:55;6.90;1.00
10864;DHT22;5485;37.558;126.950;2023-03-01T00:36:31;6.90;1.00
10864;DHT22;5485;37.558;126.950;2023-03-01T00:38:58;7.10;1.00
10864;DHT22;5485;37.558;126.950;2023-03-01T00:41:25;7.10;1.00
10864;DHT22;5485;37.558;126.950;2023-03-01T00:43:55;7.00;1.00
10864;DHT22;5485;37.558;126.950;2023-03-01T00:46:24;7.00;1.00
10864;DHT22;5485;37.558;126.950;2023-03-01T00:48:51;6.90;1.00
10864;DHT22;5485;37.558;126.950;2023-03-01T00:51:22;6.80;1.00
10864;DHT22;5485;37.558;126.950;2023-03-01T00:53:54;6.80;1.00
10864;DHT22;5485;37.558;126.950;2023-03-01T00:56:23;7.00;1.00
10864;DHT22;5485;37.558;126.950;2023-03-01T00:58:50;7.10;1.00
10864;DHT22;5485;37.558;126.950;2023-03-01T01:01:20;7.20;1.00
10864;DHT22;5485;37.558;126.950;2023-03-01T01:03:58;7.40;1.00
10864;DHT22;5485;37.558;126.950;2023-03-01T01:06:31;7.50;1.00
10864;DHT22;5485;37.558;126.950;2023-03-01T01:08:58;7.60;1.00
10864;DHT22;5485;37.558;126.950;2023-03-01T01:11:27;7.70;1.00
10864;DHT22;5485;37.558;126.950;2023-03-01T01:13:54;7.60;1.00
10864;DHT22;5485;37.558;126.950;2023-03-01T01:16:26;7.60;1.00
10864;DHT22;5485;37.558;126.950;2023-03-01T01:18:54;7.70;1.00
10864;DHT22;5485;37.558;126.950;2023-03-01T01:21:23;7.40;1.00
10864;DHT22;5485;37.558;126.950;2023-03-01T01:23:51;7.50;1.00
10864;DHT22;5485;37.558;126.950;2023-03-01T01:26:21;7.50;1.00
10864;DHT22;5485;37.558;126.950;2023-03-01T01:28:49;7.50;1.00
10864;DHT22;5485;37.558;126.950;2023-03-01T01:31:16;7.70;1.00
10864;DHT22;5485;37.558;126.950;2023-03-01T01:33:43;7.70;1.00
10864;DHT22;5485;37.558;126.950;2023-03-01T01:36:13;7.70;1.00
10864;DHT22;5485;37.558;126.950;2023-03-01T01:38:40;7.80;1.00
10864;DHT22;5485;37.558;126.950;2023-03-01T01:41:09;8.00;1.00
10864;DHT22;5485;37.558;126.950;2023-03-01T01:43:42;8.10;1.00
10864;DHT22;5485;37.558;126.950;2023-03-01T01:46:25;8.10;1.00
10864;DHT22;5485;37.558;126.950;2023-03-01T01:48:57;8.30;1.00
10864;DHT22;5485;37.558;126.950;2023-03-01T01:51:29;8.20;1.00
10864;DHT22;5485;37.558;126.950;2023-03-01T01:54:13;7.90;1.00
10864;DHT22;5485;37.558;126.950;2023-03-01T01:56:44;7.90;1.00
10864;DHT22;5485;37.558;126.950;2023-03-01T01:59:13;7.70;1.00
10864;DHT22;5485;37.558;126.950;2023-03-01T02:01:40;7.70;1.00
10864;DHT22;5485;37.558;126.950;2023-03-01T02:04:07;7.60;1.00
10864;DHT22;5485;37.558;126.950;2023-03-01T02:06:44;7.60;1.00
10864;DHT22;5485;37.558;126.950;2023-03-01T02:09:17;7.50;1.00
10864;DHT22;5485;37.558;126.950;2023-03-01T02:11:45;7.40;1.00
10864;DHT22;5485;37.558;126.950;2023-03-01T02:14:12;7.40;1.00
10864;DHT22;5485;37.558;126.950;2023-03-01T02:16:39;7.20;1.00
10864;DHT22;5485;37.558;126.950;2023-03-01T02:19:08;7.20;1.00
10864;DHT22;5485;37.558;126.950;2023-03-01T02:26:56;7.30;1.00
10864;DHT22;5485;37.558;126.950;2023-03-01T02:29:24;7.30;1.00
10864;DHT22;5485;37.558;126.950;2023-03-01T02:31:53;7.20;1.00
10864;DHT22;5485;37.558;126.950;2023-03-01T02:34:24;7.10;1.00
10864;DHT22;5485;37.558;126.950;2023-03-01T02:37:05;7.10;1.00
10864;DHT22;5485;37.558;126.950;2023-03-01T02:39:40;7.10;1.00
10864;DHT22;5485;37.558;126.950;2023-03-01T02:42:12;7.20;1.00
10864;DHT22;5485;37.558;126.950;2023-03-01T02:44:40;7.30;1.00
10864;DHT22;5485;37.558;126.950;2023-03-01T02:47:07;7.20;1.00
10864;DHT22;5485;37.558;126.950;2023-03-01T02:49:41;7.10;1.00
10864;DHT22;5485;37.558;126.950;2023-03-01T02:55:31;7.20;1.00
10864;DHT22;5485;37.558;126.950;2023-03-01T02:58:02;7.40;1.00
10864;DHT22;5485;37.558;126.950;2023-03-01T03:00:37;7.60;1.00
10864;DHT22;5485;37.558;126.950;2023-03-01T03:03:09;7.30;1.00
10864;DHT22;5485;37.558;126.950;2023-03-01T03:05:36;7.40;1.00
10864;DHT22;5485;37.558;126.950;2023-03-01T03:08:04;7.60;1.00
10864;DHT22;5485;37.558;126.950;2023-03-01T03:10:34;7.70;1.00
10864;DHT22;5485;37.558;126.950;2023-03-01T03:13:07;7.80;1.00
10864;DHT22;5485;37.558;126.950;2023-03-01T03:15:35;7.90;1.00
10864;DHT22;5485;37.558;126.950;2023-03-01T03:18:03;8.00;1.00
10864;DHT22;5485;37.558;126.950;2023-03-01T03:20:31;8.20;1.00
10864;DHT22;5485;37.558;126.950;2023-03-01T03:22:58;8.50;1.00
10864;DHT22;5485;37.558;126.950;2023-03-01T03:25:26;8.40;1.00
10864;DHT22;5485;37.558;126.950;2023-03-01T03:27:54;8.10;1.00
10864;DHT22;5485;37.558;126.950;2023-03-01T03:30:29;8.10;1.00
10864;DHT22;5485;37.558;126.950;2023-03-01T03:32:57;8.10;1.00
10864;DHT22;5485;37.558;126.950;2023-03-01T03:35:30;8.00;1.00
10864;DHT22;5485;37.558;126.950;2023-03-01T03:37:59;8.00;1.00
10864;DHT22;5485;37.558;126.950;2023-03-01T03:40:37;8.30;1.00
10864;DHT22;5485;37.558;126.950;2023-03-01T03:43:09;8.20;1.00
10864;DHT22;5485;37.558;126.950;2023-03-01T03:45:37;8.20;1.00
10864;DHT22;5485;37.558;126.950;2023-03-01T03:48:05;8.40;1.00
10864;DHT22;5485;37.558;126.950;2023-03-01T03:50:33;8.70;1.00
10864;DHT22;5485;37.558;126.950;2023-03-01T03:53:06;8.90;1.00
10864;DHT22;5485;37.558;126.950;2023-03-01T03:55:33;8.70;1.00
10864;DHT22;5485;37.558;126.950;2023-03-01T03:58:02;8.80;1.00
10864;DHT22;5485;37.558;126.950;2023-03-01T04:00:34;9.10;1.00
10864;DHT22;5485;37.558;126.950;2023-03-01T04:03:01;9.00;1.00
10864;DHT22;5485;37.558;126.950;2023-03-01T04:05:29;9.00;1.00
10864;DHT22;5485;37.558;126.950;2023-03-01T04:07:57;9.10;1.00
10864;DHT22;5485;37.558;126.950;2023-03-01T04:10:38;9.40;1.00
10864;DHT22;5485;37.558;126.950;2023-03-01T04:13:10;9.30;1.00
10864;DHT22;5485;37.558;126.950;2023-03-01T04:15:38;9.20;1.00
10864;DHT22;5485;37.558;126.950;2023-03-01T04:18:06;9.30;1.00
10864;DHT22;5485;37.558;126.950;2023-03-01T04:20:34;9.20;1.00
10864;DHT22;5485;37.558;126.950;2023-03-01T04:23:07;9.00;1.00
10864;DHT22;5485;37.558;126.950;2023-03-01T04:25:55;8.90;1.00
10864;DHT22;5485;37.558;126.950;2023-03-01T04:28:34;9.10;1.00
10864;DHT22;5485;37.558;126.950;2023-03-01T04:31:07;9.30;1.00
10864;DHT22;5485;37.558;126.950;2023-03-01T04:33:55;9.10;1.00
10864;DHT22;5485;37.558;126.950;2023-03-01T04:36:25;9.20;1.00
10864;DHT22;5485;37.558;126.950;2023-03-01T04:38:53;9.10;1.00
10864;DHT22;5485;37.558;126.950;2023-03-01T04:41:22;9.10;1.00
10864;DHT22;5485;37.558;126.950;2023-03-01T04:43:50;9.20;1.00
10864;DHT22;5485;37.558;126.950;2023-03-01T04:46:19;9.00;1.00
10864;DHT22;5485;37.558;126.950;2023-03-01T04:48:46;8.70;1.00
10864;DHT22;5485;37.558;126.950;2023-03-01T04:51:13;8.70;1.00
10864;DHT22;5485;37.558;126.950;2023-03-01T04:53:42;8.90;1.00
10864;DHT22;5485;37.558;126.950;2023-03-01T04:56:09;8.90;1.00
10864;DHT22;5485;37.558;126.950;2023-03-01T04:58:36;9.10;1.00
10864;DHT22;5485;37.558;126.950;2023-03-01T05:01:12;8.90;1.00
10864;DHT22;5485;37.558;126.950;2023-03-01T05:03:50;8.90;1.00
10864;DHT22;5485;37.558;126.950;2023-03-01T05:06:18;8.80;1.00
10864;DHT22;5485;37.558;126.950;2023-03-01T05:08:45;8.50;1.00
10864;DHT22;5485;37.558;126.950;2023-03-01T05:11:15;8.60;1.00
10864;DHT22;5485;37.558;126.950;2023-03-01T05:13:42;8.70;1.00
10864;DHT22;5485;37.558;126.950;2023-03-01T05:16:09;8.70;1.00
10864;DHT22;5485;37.558;126.950;2023-03-01T05:18:40;8.90;1.00
10864;DHT22;5485;37.558;126.950;2023-03-01T05:21:13;8.70;1.00
10864;DHT22;5485;37.558;126.950;2023-03-01T05:23:42;8.80;1.00
10864;DHT22;5485;37.558;126.950;2023-03-01T05:26:09;8.90;1.00
10864;DHT22;5485;37.558;126.950;2023-03-01T05:28:36;8.80;1.00
10864;DHT22;5485;37.558;126.950;2023-03-01T05:31:04;8.80;1.00
10864;DHT22;5485;37.558;126.950;2023-03-01T05:33:40;8.90;1.00
10864;DHT22;5485;37.558;126.950;2023-03-01T05:36:08;8.80;1.00
10864;DHT22;5485;37.558;126.950;2023-03-01T05:38:35;8.70;1.00
10864;DHT22;5485;37.558;126.950;2023-03-01T05:41:02;8.70;1.00
10864;DHT22;5485;37.558;126.950;2023-03-01T05:43:33;8.90;1.00
10864;DHT22;5485;37.558;126.950;2023-03-01T05:46:00;9.00;1.00
10864;DHT22;5485;37.558;126.950;2023-03-01T05:48:26;8.90;1.00
10864;DHT22;5485;37.558;126.950;2023-03-01T05:50:53;9.10;1.00
10864;DHT22;5485;37.558;126.950;2023-03-01T05:53:20;9.10;1.00
10864;DHT22;5485;37.558;126.950;2023-03-01T05:55:48;9.10;1.00
10864;DHT22;5485;37.558;126.950;2023-03-01T05:58:18;9.00;1.00
10864;DHT22;5485;37.558;126.950;2023-03-01T06:00:47;9.00;1.00
10864;DHT22;5485;37.558;126.950;2023-03-01T06:03:15;9.00;1.00
10864;DHT22;5485;37.558;126.950;2023-03-01T06:05:43;9.00;1.00
10864;DHT22;5485;37.558;126.950;2023-03-01T06:08:11;8.80;1.00
10864;DHT22;5485;37.558;126.950;2023-03-01T06:10:39;8.90;1.00
10864;DHT22;5485;37.558;126.950;2023-03-01T06:13:06;8.90;1.00
10864;DHT22;5485;37.558;126.950;2023-03-01T06:15:49;8.90;1.00
10864;DHT22;5485;37.558;126.950;2023-03-01T06:18:16;8.90;1.00
10864;DHT22;5485;37.558;126.950;2023-03-01T06:20:43;8.80;1.00
10864;DHT22;5485;37.558;126.950;2023-03-01T06:23:09;8.80;1.00
10864;DHT22;5485;37.558;126.950;2023-03-01T06:25:37;8.70;1.00
10864;DHT22;5485;37.558;126.950;2023-03-01T06:28:04;8.60;1.00
10864;DHT22;5485;37.558;126.950;2023-03-01T06:30:31;8.40;1.00
10864;DHT22;5485;37.558;126.950;2023-03-01T06:32:58;8.50;1.00
10864;DHT22;5485;37.558;126.950;2023-03-01T06:35:27;8.60;1.00
10864;DHT22;5485;37.558;126.950;2023-03-01T06:37:59;8.60;1.00
10864;DHT22;5485;37.558;126.950;2023-03-01T06:40:26;8.60;1.00
10864;DHT22;5485;37.558;126.950;2023-03-01T06:42:57;8.50;1.00
10864;DHT22;5485;37.558;126.950;2023-03-01T06:45:24;8.50;1.00
10864;DHT22;5485;37.558;126.950;2023-03-01T06:47:51;8.60;1.00
10864;DHT22;5485;37.558;126.950;2023-03-01T06:50:18;8.50;1.00
10864;DHT22;5485;37.558;126.950;2023-03-01T06:52:46;8.50;1.00
10864;DHT22;5485;37.558;126.950;2023-03-01T06:55:13;8.40;1.00
10864;DHT22;5485;37.558;126.950;2023-03-01T06:57:40;8.40;1.00
10864;DHT22;5485;37.558;126.950;2023-03-01T07:00:08;8.50;1.00
10864;DHT22;5485;37.558;126.950;2023-03-01T07:02:35;8.50;1.00
10864;DHT22;5485;37.558;126.950;2023-03-01T07:05:02;8.50;1.00
10864;DHT22;5485;37.558;126.950;2023-03-01T07:07:29;8.40;1.00
10864;DHT22;5485;37.558;126.950;2023-03-01T07:09:56;8.40;1.00
10864;DHT22;5485;37.558;126.950;2023-03-01T07:12:23;8.30;1.00
10864;DHT22;5485;37.558;126.950;2023-03-01T07:14:49;8.30;1.00
10864;DHT22;5485;37.558;126.950;2023-03-01T07:17:16;8.30;1.00
10864;DHT22;5485;37.558;126.950;2023-03-01T07:19:43;8.40;1.00
10864;DHT22;5485;37.558;126.950;2023-03-01T07:22:11;8.30;1.00
10864;DHT22;5485;37.558;126.950;2023-03-01T07:24:37;8.20;1.00
10864;DHT22;5485;37.558;126.950;2023-03-01T07:27:04;8.20;1.00
10864;DHT22;5485;37.558;126.950;2023-03-01T07:29:31;8.20;1.00
10864;DHT22;5485;37.558;126.950;2023-03-01T07:31:58;8.20;1.00
10864;DHT22;5485;37.558;126.950;2023-03-01T07:34:25;8.20;1.00
10864;DHT22;5485;37.558;126.950;2023-03-01T07:36:52;8.20;1.00
10864;DHT22;5485;37.558;126.950;2023-03-01T07:39:19;8.10;1.00
10864;DHT22;5485;37.558;126.950;2023-03-01T07:41:46;8.10;1.00
10864;DHT22;5485;37.558;126.950;2023-03-01T07:44:13;8.10;1.00
10864;DHT22;5485;37.558;126.950;2023-03-01T07:46:41;8.10;1.00
10864;DHT22;5485;37.558;126.950;2023-03-01T07:49:08;8.20;1.00
10864;DHT22;5485;37.558;126.950;2023-03-01T07:51:35;8.20;1.00
10864;DHT22;5485;37.558;126.950;2023-03-01T07:54:02;8.20;1.00
10864;DHT22;5485;37.558;126.950;2023-03-01T07:56:29;8.20;1.00
10864;DHT22;5485;37.558;126.950;2023-03-01T07:58:56;8.20;1.00
10864;DHT22;5485;37.558;126.950;2023-03-01T08:01:25;8.10;1.00
10864;DHT22;5485;37.558;126.950;2023-03-01T08:03:52;8.10;1.00
10864;DHT22;5485;37.558;126.950;2023-03-01T08:06:19;8.10;1.00
10864;DHT22;5485;37.558;126.950;2023-03-01T08:08:46;8.10;1.00
10864;DHT22;5485;37.558;126.950;2023-03-01T08:11:14;8.10;1.00
10864;DHT22;5485;37.558;126.950;2023-03-01T08:13:42;8.00;1.00
10864;DHT22;5485;37.558;126.950;2023-03-01T08:16:14;7.90;1.00
10864;DHT22;5485;37.558;126.950;2023-03-01T08:18:42;7.80;1.00
10864;DHT22;5485;37.558;126.950;2023-03-01T08:21:16;7.80;1.00
10864;DHT22;5485;37.558;126.950;2023-03-01T08:23:44;7.70;1.00
10864;DHT22;5485;37.558;126.950;2023-03-01T08:26:14;7.70;1.00
10864;DHT22;5485;37.558;126.950;2023-03-01T08:28:42;7.70;1.00
10864;DHT22;5485;37.558;126.950;2023-03-01T08:31:27;7.80;1.00
10864;DHT22;5485;37.558;126.950;2023-03-01T08:33:57;7.90;1.00
10864;DHT22;5485;37.558;126.950;2023-03-01T08:36:29;7.90;1.00
10864;DHT22;5485;37.558;126.950;2023-03-01T08:38:56;7.80;1.00
10864;DHT22;5485;37.558;126.950;2023-03-01T08:41:24;7.70;1.00
10864;DHT22;5485;37.558;126.950;2023-03-01T08:43:51;7.60;1.00
10864;DHT22;5485;37.558;126.950;2023-03-01T08:46:19;7.60;1.00
10864;DHT22;5485;37.558;126.950;2023-03-01T08:48:45;7.60;1.00
10864;DHT22;5485;37.558;126.950;2023-03-01T08:51:17;7.40;1.00
10864;DHT22;5485;37.558;126.950;2023-03-01T08:53:45;7.30;1.00
10864;DHT22;5485;37.558;126.950;2023-03-01T08:56:13;7.30;1.00
10864;DHT22;5485;37.558;126.950;2023-03-01T08:58:47;7.30;1.00
10864;DHT22;5485;37.558;126.950;2023-03-01T09:01:18;7.20;1.00
10864;DHT22;5485;37.558;126.950;2023-03-01T09:03:46;7.20;1.00
10864;DHT22;5485;37.558;126.950;2023-03-01T09:06:13;7.10;1.00
10864;DHT22;5485;37.558;126.950;2023-03-01T09:08:43;7.00;1.00
10864;DHT22;5485;37.558;126.950;2023-03-01T09:11:13;6.90;1.00
10864;DHT22;5485;37.558;126.950;2023-03-01T09:13:41;6.90;1.00
10864;DHT22;5485;37.558;126.950;2023-03-01T09:16:08;6.80;1.00
10864;DHT22;5485;37.558;126.950;2023-03-01T09:18:35;6.70;1.00
10864;DHT22;5485;37.558;126.950;2023-03-01T09:21:12;6.60;1.00
10864;DHT22;5485;37.558;126.950;2023-03-01T09:23:41;6.60;1.00
10864;DHT22;5485;37.558;126.950;2023-03-01T09:26:09;6.50;1.00
10864;DHT22;5485;37.558;126.950;2023-03-01T09:28:37;6.50;1.00
10864;DHT22;5485;37.558;126.950;2023-03-01T09:31:04;6.40;1.00
10864;DHT22;5485;37.558;126.950;2023-03-01T09:33:32;6.40;1.00
10864;DHT22;5485;37.558;126.950;2023-03-01T09:36:01;6.40;1.00
10864;DHT22;5485;37.558;126.950;2023-03-01T09:38:28;6.30;1.00
10864;DHT22;5485;37.558;126.950;2023-03-01T09:40:55;6.30;1.00
10864;DHT22;5485;37.558;126.950;2023-03-01T09:46:04;6.20;1.00
10864;DHT22;5485;37.558;126.950;2023-03-01T09:48:48;6.20;1.00
10864;DHT22;5485;37.558;126.950;2023-03-01T09:51:35;6.20;1.00
10864;DHT22;5485;37.558;126.950;2023-03-01T09:54:06;6.20;1.00
10864;DHT22;5485;37.558;126.950;2023-03-01T09:57:01;6.10;1.00
10864;DHT22;5485;37.558;126.950;2023-03-01T10:04:51;5.90;1.00
10864;DHT22;5485;37.558;126.950;2023-03-01T10:07:30;5.90;1.00
10864;DHT22;5485;37.558;126.950;2023-03-01T10:09:59;5.90;1.00
10864;DHT22;5485;37.558;126.950;2023-03-01T10:12:33;5.80;1.00
10864;DHT22;5485;37.558;126.950;2023-03-01T10:15:18;5.90;1.00
10864;DHT22;5485;37.558;126.950;2023-03-01T10:17:55;5.80;1.00
10864;DHT22;5485;37.558;126.950;2023-03-01T10:20:36;5.80;1.00
10864;DHT22;5485;37.558;126.950;2023-03-01T10:23:05;5.70;1.00
10864;DHT22;5485;37.558;126.950;2023-03-01T10:31:07;5.60;1.00
10864;DHT22;5485;37.558;126.950;2023-03-01T10:33:38;5.60;1.00
10864;DHT22;5485;37.558;126.950;2023-03-01T10:36:09;5.50;1.00
10864;DHT22;5485;37.558;126.950;2023-03-01T10:38:56;5.50;1.00
10864;DHT22;5485;37.558;126.950;2023-03-01T10:41:25;5.50;1.00
10864;DHT22;5485;37.558;126.950;2023-03-01T10:43:57;5.40;1.00
10864;DHT22;5485;37.558;126.950;2023-03-01T10:46:37;5.50;1.00
10864;DHT22;5485;37.558;126.950;2023-03-01T10:49:21;5.40;1.00
10864;DHT22;5485;37.558;126.950;2023-03-01T10:51:51;5.40;1.00
10864;DHT22;5485;37.558;126.950;2023-03-01T10:54:31;5.40;1.00
10864;DHT22;5485;37.558;126.950;2023-03-01T10:57:04;5.40;1.00
10864;DHT22;5485;37.558;126.950;2023-03-01T10:59:36;5.30;1.00
10864;DHT22;5485;37.558;126.950;2023-03-01T11:04:36;5.20;1.00
10864;DHT22;5485;37.558;126.950;2023-03-01T11:07:03;5.20;1.00
10864;DHT22;5485;37.558;126.950;2023-03-01T11:09:33;5.20;1.00
10864;DHT22;5485;37.558;126.950;2023-03-01T11:12:14;5.20;1.00
10864;DHT22;5485;37.558;126.950;2023-03-01T11:14:58;5.20;1.00
10864;DHT22;5485;37.558;126.950;2023-03-01T11:17:30;5.20;1.00
10864;DHT22;5485;37.558;126.950;2023-03-01T11:23:14;5.10;1.00
10864;DHT22;5485;37.558;126.950;2023-03-01T11:25:43;5.10;1.00
10864;DHT22;5485;37.558;126.950;2023-03-01T11:28:17;5.10;1.00
10864;DHT22;5485;37.558;126.950;2023-03-01T11:33:43;5.00;1.00
10864;DHT22;5485;37.558;126.950;2023-03-01T11:39:10;5.00;1.00
10864;DHT22;5485;37.558;126.950;2023-03-01T11:41:51;4.90;1.00
10864;DHT22;5485;37.558;126.950;2023-03-01T11:44:27;4.90;1.00
10864;DHT22;5485;37.558;126.950;2023-03-01T11:53:00;4.70;1.00
10864;DHT22;5485;37.558;126.950;2023-03-01T11:55:50;4.70;1.00
10864;DHT22;5485;37.558;126.950;2023-03-01T12:07:05;4.60;1.00
10864;DHT22;5485;37.558;126.950;2023-03-01T12:15:07;4.50;1.00
10864;DHT22;5485;37.558;126.950;2023-03-01T12:28:51;4.40;1.00
10864;DHT22;5485;37.558;126.950;2023-03-01T12:42:24;4.30;1.00
10864;DHT22;5485;37.558;126.950;2023-03-01T12:50:39;4.20;1.00
10864;DHT22;5485;37.558;126.950;2023-03-01T12:53:57;4.10;1.00
10864;DHT22;5485;37.558;126.950;2023-03-01T12:56:10;4.10;1.00
10864;DHT22;5485;37.558;126.950;2023-03-01T13:07:06;4.10;1.00
10864;DHT22;5485;37.558;126.950;2023-03-01T13:17:54;3.90;1.00
10864;DHT22;5485;37.558;126.950;2023-03-01T13:23:33;3.90;1.00
10864;DHT22;5485;37.558;126.950;2023-03-01T13:26:17;3.80;1.00
10864;DHT22;5485;37.558;126.950;2023-03-01T13:33:57;3.70;1.00
10864;DHT22;5485;37.558;126.950;2023-03-01T13:39:03;3.60;1.00
10864;DHT22;5485;37.558;126.950;2023-03-01T13:44:32;3.60;1.00
10864;DHT22;5485;37.558;126.950;2023-03-01T13:49:57;3.60;1.00
10864;DHT22;5485;37.558;126.950;2023-03-01T13:55:36;3.60;1.00
10864;DHT22;5485;37.558;126.950;2023-03-01T13:58:21;3.50;1.00
10864;DHT22;5485;37.558;126.950;2023-03-01T14:00:54;3.60;1.00
10864;DHT22;5485;37.558;126.950;2023-03-01T14:03:22;3.50;1.00
10864;DHT22;5485;37.558;126.950;2023-03-01T14:06:06;3.50;1.00
10864;DHT22;5485;37.558;126.950;2023-03-01T14:08:37;3.50;1.00
10864;DHT22;5485;37.558;126.950;2023-03-01T14:17:25;3.40;1.00
10864;DHT22;5485;37.558;126.950;2023-03-01T14:20:00;3.50;1.00
10864;DHT22;5485;37.558;126.950;2023-03-01T14:22:35;3.50;1.00
10864;DHT22;5485;37.558;126.950;2023-03-01T14:25:28;3.50;1.00
10864;DHT22;5485;37.558;126.950;2023-03-01T14:30:42;3.40;1.00
10864;DHT22;5485;37.558;126.950;2023-03-01T14:38:34;3.20;1.00
10864;DHT22;5485;37.558;126.950;2023-03-01T14:41:21;3.20;1.00
10864;DHT22;5485;37.558;126.950;2023-03-01T14:43:57;3.30;1.00
10864;DHT22;5485;37.558;126.950;2023-03-01T14:51:35;3.10;1.00
10864;DHT22;5485;37.558;126.950;2023-03-01T14:54:02;3.10;1.00
10864;DHT22;5485;37.558;126.950;2023-03-01T14:56:44;3.20;1.00
10864;DHT22;5485;37.558;126.950;2023-03-01T14:59:12;3.10;1.00
10864;DHT22;5485;37.558;126.950;2023-03-01T15:01:41;3.10;1.00
10864;DHT22;5485;37.558;126.950;2023-03-01T15:04:12;3.00;1.00
10864;DHT22;5485;37.558;126.950;2023-03-01T15:06:39;3.00;1.00
10864;DHT22;5485;37.558;126.950;2023-03-01T15:09:13;3.00;1.00
10864;DHT22;5485;37.558;126.950;2023-03-01T15:11:42;2.90;1.00
10864;DHT22;5485;37.558;126.950;2023-03-01T15:14:40;2.90;1.00
10864;DHT22;5485;37.558;126.950;2023-03-01T15:17:39;2.90;1.00
10864;DHT22;5485;37.558;126.950;2023-03-01T15:20:19;2.80;1.00
10864;DHT22;5485;37.558;126.950;2023-03-01T15:22:52;2.80;1.00
10864;DHT22;5485;37.558;126.950;2023-03-01T15:25:27;2.70;1.00
10864;DHT22;5485;37.558;126.950;2023-03-01T15:27:57;2.80;1.00
10864;DHT22;5485;37.558;126.950;2023-03-01T15:30:29;2.70;1.00
10864;DHT22;5485;37.558;126.950;2023-03-01T15:35:55;2.70;1.00
10864;DHT22;5485;37.558;126.950;2023-03-01T15:41:30;2.60;1.00
10864;DHT22;5485;37.558;126.950;2023-03-01T15:44:03;2.60;1.00
10864;DHT22;5485;37.558;126.950;2023-03-01T15:46:44;2.60;1.00
10864;DHT22;5485;37.558;126.950;2023-03-01T15:49:33;2.60;1.00
10864;DHT22;5485;37.558;126.950;2023-03-01T15:52:02;2.50;1.00
10864;DHT22;5485;37.558;126.950;2023-03-01T15:54:29;2.50;1.00
10864;DHT22;5485;37.558;126.950;2023-03-01T15:56:56;2.40;1.00
10864;DHT22;5485;37.558;126.950;2023-03-01T15:59:23;2.40;1.00
10864;DHT22;5485;37.558;126.950;2023-03-01T16:01:53;2.40;1.00
10864;DHT22;5485;37.558;126.950;2023-03-01T16:04:20;2.40;1.00
10864;DHT22;5485;37.558;126.950;2023-03-01T16:06:50;2.30;1.00
10864;DHT22;5485;37.558;126.950;2023-03-01T16:09:24;2.30;1.00
10864;DHT22;5485;37.558;126.950;2023-03-01T16:11:52;2.30;1.00
10864;DHT22;5485;37.558;126.950;2023-03-01T16:14:22;2.30;1.00
10864;DHT22;5485;37.558;126.950;2023-03-01T16:16:49;2.20;1.00
10864;DHT22;5485;37.558;126.950;2023-03-01T16:19:16;2.20;1.00
10864;DHT22;5485;37.558;126.950;2023-03-01T16:21:43;2.20;1.00
10864;DHT22;5485;37.558;126.950;2023-03-01T16:24:13;2.20;1.00
10864;DHT22;5485;37.558;126.950;2023-03-01T16:26:40;2.10;1.00
10864;DHT22;5485;37.558;126.950;2023-03-01T16:29:08;2.10;1.00
10864;DHT22;5485;37.558;126.950;2023-03-01T16:31:35;2.10;1.00
10864;DHT22;5485;37.558;126.950;2023-03-01T16:34:02;2.10;1.00
10864;DHT22;5485;37.558;126.950;2023-03-01T16:36:31;2.10;1.00
10864;DHT22;5485;37.558;126.950;2023-03-01T16:38:59;2.10;1.00
10864;DHT22;5485;37.558;126.950;2023-03-01T16:41:27;2.00;1.00
10864;DHT22;5485;37.558;126.950;2023-03-01T16:43:54;2.00;1.00
10864;DHT22;5485;37.558;126.950;2023-03-01T16:46:26;2.00;1.00
10864;DHT22;5485;37.558;126.950;2023-03-01T16:48:54;2.00;1.00
10864;DHT22;5485;37.558;126.950;2023-03-01T16:51:22;1.90;1.00
10864;DHT22;5485;37.558;126.950;2023-03-01T16:53:50;2.00;1.00
10864;DHT22;5485;37.558;126.950;2023-03-01T16:56:17;1.90;1.00
10864;DHT22;5485;37.558;126.950;2023-03-01T16:58:44;1.90;1.00
10864;DHT22;5485;37.558;126.950;2023-03-01T17:01:17;1.90;1.00
10864;DHT22;5485;37.558;126.950;2023-03-01T17:03:45;1.80;1.00
10864;DHT22;5485;37.558;126.950;2023-03-01T17:06:19;1.80;1.00
10864;DHT22;5485;37.558;126.950;2023-03-01T17:08:50;1.70;1.00
10864;DHT22;5485;37.558;126.950;2023-03-01T17:11:19;1.70;1.00
10864;DHT22;5485;37.558;126.950;2023-03-01T17:13:47;1.70;1.00
10864;DHT22;5485;37.558;126.950;2023-03-01T17:16:18;1.70;1.00
10864;DHT22;5485;37.558;126.950;2023-03-01T17:18:47;1.60;1.00
10864;DHT22;5485;37.558;126.950;2023-03-01T17:21:15;1.60;1.00
10864;DHT22;5485;37.558;126.950;2023-03-01T17:23:44;1.60;1.00
10864;DHT22;5485;37.558;126.950;2023-03-01T17:26:11;1.60;1.00
10864;DHT22;5485;37.558;126.950;2023-03-01T17:28:39;1.60;1.00
10864;DHT22;5485;37.558;126.950;2023-03-01T17:31:06;1.50;1.00
10864;DHT22;5485;37.558;126.950;2023-03-01T17:33:34;1.50;1.00
10864;DHT22;5485;37.558;126.950;2023-03-01T17:36:01;1.50;1.00
10864;DHT22;5485;37.558;126.950;2023-03-01T17:38:28;1.50;1.00
10864;DHT22;5485;37.558;126.950;2023-03-01T17:40:59;1.40;1.00
10864;DHT22;5485;37.558;126.950;2023-03-01T17:43:26;1.40;1.00
10864;DHT22;5485;37.558;126.950;2023-03-01T17:45:54;1.40;1.00
10864;DHT22;5485;37.558;126.950;2023-03-01T17:48:21;1.40;1.00
10864;DHT22;5485;37.558;126.950;2023-03-01T17:50:48;1.30;1.00
10864;DHT22;5485;37.558;126.950;2023-03-01T17:53:15;1.40;1.00
10864;DHT22;5485;37.558;126.950;2023-03-01T17:55:43;1.30;1.00
10864;DHT22;5485;37.558;126.950;2023-03-01T17:58:13;1.30;1.00
10864;DHT22;5485;37.558;126.950;2023-03-01T18:00:40;1.30;1.00
10864;DHT22;5485;37.558;126.950;2023-03-01T18:03:07;1.20;1.00
10864;DHT22;5485;37.558;126.950;2023-03-01T18:05:35;1.20;1.00
10864;DHT22;5485;37.558;126.950;2023-03-01T18:08:11;1.20;1.00
10864;DHT22;5485;37.558;126.950;2023-03-01T18:10:44;1.20;1.00
10864;DHT22;5485;37.558;126.950;2023-03-01T18:13:10;1.20;1.00
10864;DHT22;5485;37.558;126.950;2023-03-01T18:15:40;1.20;1.00
10864;DHT22;5485;37.558;126.950;2023-03-01T18:18:07;1.10;1.00
10864;DHT22;5485;37.558;126.950;2023-03-01T18:20:34;1.20;1.00
10864;DHT22;5485;37.558;126.950;2023-03-01T18:23:06;1.10;1.00
10864;DHT22;5485;37.558;126.950;2023-03-01T18:25:33;1.10;1.00
10864;DHT22;5485;37.558;126.950;2023-03-01T18:28:00;1.10;1.00
10864;DHT22;5485;37.558;126.950;2023-03-01T18:30:36;1.10;1.00